• Join FlightAware (Why Join?)
  • Login
  • US Flag 
05:53PM EDT


 

Airport Tracker/Info


-or-


 

Live Flight TrackerFlight Track Log ✈ SWA2166 ✈ 11-Apr-2013 ✈ KBHM - KHOU

Flight Track Log - Related Links

Times and Time Zones

All times are in EDT time to prevent confusion due to time zone crossing. See the SWA2166 flight status page for this flight to view local times or setup timezone preferences in your user account.

Time Position Orientation Groundspeed Altitude Reporting Facility
EDT Latitude Longitude Course Direction KTS MPH feet Rate Location/Type
08:41PM 33.5725 -86.7439 58° Northeast 161 185 1,600  Level Atlanta Center
08:41PM 33.5814 -86.7267 58° Northeast 172 198 2,000 1,920 Climbing Atlanta Center
08:42PM 33.5803 -86.6694 91° East 226 260 4,200 2,280 Climbing Atlanta Center
08:43PM 33.5458 -86.7183 230° Southwest 197 227 7,000 2,760 Climbing Atlanta Center
08:44PM 33.5089 -86.7867 237° Southwest 229 264 10,300 3,300 Climbing Atlanta Center
08:45PM 33.4614 -86.8600 232° Southwest 259 298 13,600 3,480 Climbing Atlanta Center
08:46PM 33.4158 -86.9331 233° Southwest 272 313 17,300 3,420 Climbing Atlanta Center
08:47PM 33.3706 -87.0014 232° Southwest 272 313 20,500 2,640 Climbing Atlanta Center
08:48PM 33.3247 -87.0769 234° Southwest 272 313 22,600 2,040 Climbing Atlanta Center
08:49PM 33.2725 -87.1619 234° Southwest 295 339 24,600 2,040 Climbing Atlanta Center
08:50PM 33.2183 -87.2444 232° Southwest 314 361 26,700 1,800 Climbing Atlanta Center
08:51PM 33.1617 -87.3317 232° Southwest 324 373 28,200 1,260 Climbing Atlanta Center
08:52PM 33.1189 -87.4442 246° West 345 397 29,300 1,680 Climbing Atlanta Center
08:53PM 33.0781 -87.5664 248° West 378 435 31,600 2,040 Climbing Atlanta Center
08:54PM 33.0317 -87.6986 247° West 380 437 33,600 1,740 Climbing Memphis Center
08:55PM 32.9922 -87.8111 247° West 374 430 35,300 1,200 Climbing Memphis Center
08:56PM 32.9592 -87.9233 251° West 374 430 36,000 300 Climbing Memphis Center
08:57PM 32.9217 -88.0358 248° West 374 430 36,000  Level Memphis Center
08:58PM 32.8819 -88.1458 247° West 374 430 36,000  Level Memphis Center
08:59PM 32.8419 -88.2581 247° West 374 430 36,000  Level Memphis Center
09:00PM 32.8042 -88.3700 248° West 374 430 36,000  Level Memphis Center
09:01PM 32.7642 -88.4822 247° West 374 430 36,000  Level Memphis Center
09:02PM 32.7261 -88.5942 248° West 374 430 36,000  Level Memphis Center
09:03PM 32.6839 -88.7061 246° West 374 430 36,000  Level Memphis Center
09:04PM 32.6456 -88.8178 248° West 374 430 36,000  Level Memphis Center
09:05PM 32.6053 -88.9269 246° West 374 430 36,000  Level Memphis Center
09:06PM 32.5647 -89.0408 247° West 374 430 36,000  Level Memphis Center
09:07PM 32.5242 -89.1525 247° West 374 430 36,000  Level Memphis Center
09:08PM 32.4833 -89.2614 246° West 374 430 36,000  Level Memphis Center
09:09PM 32.4425 -89.3728 247° West 379 436 36,000  Level Memphis Center
09:10PM 32.4017 -89.4839 247° West 379 436 36,000  Level Memphis Center
09:11PM 32.3606 -89.5975 247° West 379 436 36,000  Level Memphis Center
09:12PM 32.3217 -89.7083 247° West 379 436 36,000  Level Memphis Center
09:13PM 32.2803 -89.8217 247° West 379 436 36,000  Level Memphis Center
09:14PM 32.2392 -89.9325 246° West 379 436 36,000  Level Memphis Center
09:15PM 32.1975 -90.0456 246° West 379 436 36,000  Level Memphis Center
09:16PM 32.1561 -90.1561 246° West 379 436 36,000  Level Memphis Center
09:19PM 32.0686 -90.3906 246° West 376 433 36,000  Level Houston Center
09:20PM 32.0275 -90.5011 246° West 372 428 36,000  Level Houston Center
09:21PM 31.9794 -90.6306 246° West 363 418 36,000  Level Houston Center
09:22PM 31.9389 -90.7381 246° West 362 417 36,000  Level Houston Center
09:23PM 31.8950 -90.8536 246° West 362 417 36,000  Level Houston Center
09:24PM 31.8550 -90.9622 247° West 363 418 36,000  Level Houston Center
09:25PM 31.8122 -91.0708 245° Southwest 366 421 36,000  Level Houston Center
09:26PM 31.7711 -91.1792 246° West 364 419 36,000  Level Houston Center
09:27PM 31.7294 -91.2878 246° West 364 419 36,000  Level Houston Center
09:28PM 31.6889 -91.3956 246° West 362 417 36,000  Level Houston Center
09:29PM 31.6469 -91.5033 245° Southwest 364 419 36,000  Level Houston Center
09:30PM 31.6050 -91.6108 245° Southwest 363 418 36,000  Level Houston Center
09:31PM 31.5633 -91.7183 246° West 361 415 36,000  Level Houston Center
09:32PM 31.5131 -91.8489 246° West 366 421 36,000  Level Houston Center
09:33PM 31.4711 -91.9561 245° Southwest 364 419 36,000  Level Houston Center
09:34PM 31.4339 -92.0508 245° Southwest 363 418 36,000  Level Houston Center
09:35PM 31.3908 -92.1569 245° Southwest 362 417 36,000  Level Houston Center
09:36PM 31.3400 -92.2875 246° West 367 422 36,000  Level Houston Center
09:37PM 31.2975 -92.3950 245° Southwest 367 422 36,000  Level Houston Center
09:38PM 31.2536 -92.5056 245° Southwest 374 430 36,000  Level Houston Center
09:39PM 31.2119 -92.6147 246° West 370 426 36,000  Level Houston Center
09:40PM 31.1731 -92.7267 248° West 371 427 36,000  Level Houston Center
09:41PM 31.1322 -92.8350 246° West 366 421 36,000  Level Houston Center
09:42PM 31.0917 -92.9439 247° West 366 421 36,000  Level Houston Center
09:43PM 31.0522 -93.0544 247° West 370 426 36,000  Level Houston Center
09:44PM 31.0117 -93.1633 247° West 368 423 36,000  Level Houston Center
09:45PM 30.9628 -93.2928 246° West 367 422 36,000  Level Houston Center
09:46PM 30.9219 -93.4008 246° West 367 422 36,000  Level Houston Center
09:47PM 30.8817 -93.5097 247° West 368 423 36,000  Level Houston Center
09:48PM 30.8406 -93.6169 246° West 367 422 36,000  Level Houston Center
09:49PM 30.8008 -93.7256 247° West 368 423 36,000  Level Houston Center
09:50PM 30.7589 -93.8328 246° West 368 423 36,000  Level Houston Center
09:51PM 30.7178 -93.9414 246° West 369 425 36,000  Level Houston Center
09:52PM 30.6678 -94.0703 246° West 367 422 36,000  Level Houston Center
09:53PM 30.6306 -94.1667 246° West 367 422 36,000 -1,200 Level Houston Center
09:54PM 30.5989 -94.2511 246° West 364 419 34,000 -2,580 Descending Houston Center
09:54PM 30.5858 -94.2839 245° Southwest 361 415 33,100 -4,560 Descending Houston Center
09:55PM 30.5556 -94.3636 246° West 359 413 29,400 -4,920 Descending Houston Center
09:55PM 30.5442 -94.3925 245° Southwest 371 427 28,100 -5,340 Descending Houston Center
09:56PM 30.5083 -94.4814 245° Southwest 404 465 24,000 -5,640 Descending Houston Center
09:56PM 30.4925 -94.5206 245° Southwest 393 452 22,400 -4,680 Descending Houston Center
09:57PM 30.4528 -94.5808 233° Southwest 398 458 19,800 -3,780 Descending Houston Center
09:57PM 30.4381 -94.6061 236° Southwest 390 449 18,600 -4,140 Descending Houston Center
09:58PM 30.3908 -94.6786 233° Southwest 375 432 15,600 -3,600 Descending Houston Center
09:59PM 30.3758 -94.7031 235° Southwest 378 435 14,900 -2,400 Descending Houston Center
09:59PM 30.3325 -94.7708 233° Southwest 355 409 13,200 -2,100 Descending Houston Center
10:00PM 30.3181 -94.7942 234° Southwest 357 411 12,800 -1,500 Descending Houston Center
10:00PM 30.2736 -94.8606 232° Southwest 353 406 11,700 -1,500 Descending Houston Center
10:01PM 30.2489 -94.9011 235° Southwest 346 398 11,300 -1,020 Descending Houston Center
10:01PM 30.2225 -94.9394 231° Southwest 328 377 10,800 -1,020 Descending Houston Center
10:02PM 30.1936 -94.9836 233° Southwest 329 379 10,300 -720 Descending Houston Center
10:02PM 30.1600 -95.0344 233° Southwest 324 373 10,000 -300 Descending Houston Center
10:03PM 30.1389 -95.0650 231° Southwest 324 373 10,000  Level Houston Center
10:03PM 30.0936 -95.0886 204° Southwest 342 394 10,000  Level Houston Center
10:04PM 30.0522 -95.1064 200° South 334 384 10,000  Level Houston Center
10:04PM 29.9967 -95.1319 202° Southwest 333 383 10,000  Level Houston Center
10:05PM 29.9642 -95.1444 198° South 338 389 10,000 -120 Level Houston Center
10:05PM 29.9097 -95.1667 199° South 314 361 9,900 -420 Descending Houston Center
10:06PM 29.8819 -95.1714 188° South 301 346 9,600 -1,380 Descending Houston Center
10:06PM 29.8294 -95.1836 191° South 279 321 8,500 -1,620 Descending Houston Center
10:07PM 29.8058 -95.1875 188° South 282 325 8,000 -1,500 Descending Houston Center
10:07PM 29.7531 -95.1978 190° South 277 319 7,000 -1,500 Descending Houston Center
10:08PM 29.7306 -95.2036 193° South 277 319 6,500 -1,020 Descending Houston Center
10:08PM 29.6767 -95.2144 190° South 273 314 6,000 -540 Descending Houston Center
10:09PM 29.6417 -95.2225 191° South 276 318 6,000 -300 Level Houston Center
10:09PM 29.6006 -95.2308 190° South 249 287 5,700 -600 Descending Houston Center
10:10PM 29.5733 -95.2369 191° South 266 306 5,400 -840 Descending Houston Center
10:10PM 29.5439 -95.2522 204° Southwest 194 223 4,900 -1,320 Descending Houston Center
10:11PM 29.5275 -95.2706 224° Southwest 210 242 4,100 -2,100 Descending Houston Center
10:11PM 29.5319 -95.3064 278° West 170 196 2,600 -1,920 Descending Houston Center
10:12PM 29.5428 -95.3214 310° West 186 214 2,200 -1,020 Descending Houston Center
10:12PM 29.5678 -95.3308 342° North 160 184 1,700 -900 Descending Houston Center
10:13PM 29.5850 -95.3300 North 160 184 1,300 -660 Descending Houston Center
10:13PM 29.6106 -95.3161 25° Northeast 125 144 900 -600 Descending Houston Center
10:14PM 29.6169 -95.3108 36° Northeast 142 163 700 -720 Descending Houston Center